createdAt,value
2018-08-17T00:02:17.312Z,17.90
2018-08-17T00:04:45.461Z,17.80
2018-08-17T00:07:13.592Z,17.80
2018-08-17T00:09:41.733Z,17.80
2018-08-17T00:12:09.915Z,17.80
2018-08-17T00:14:38.194Z,17.90
2018-08-17T00:17:06.496Z,17.90
2018-08-17T00:19:34.677Z,17.80
2018-08-17T00:22:02.855Z,17.70
2018-08-17T00:24:31.004Z,17.70
2018-08-17T00:26:59.170Z,17.70
2018-08-17T00:29:27.357Z,17.70
2018-08-17T00:31:55.592Z,17.50
2018-08-17T00:34:23.786Z,17.50
2018-08-17T00:39:19.921Z,17.40
2018-08-17T00:41:48.117Z,17.40
2018-08-17T00:44:16.315Z,17.40
2018-08-17T00:46:44.468Z,17.50
2018-08-17T00:49:12.633Z,17.50
2018-08-17T00:51:40.931Z,17.40
2018-08-17T01:01:33.062Z,17.20
2018-08-17T01:04:01.228Z,17.20
2018-08-17T01:08:58.031Z,17.20
2018-08-17T01:11:26.173Z,17.20
2018-08-17T01:13:54.326Z,17.10
2018-08-17T01:16:22.473Z,17.10
2018-08-17T01:18:50.616Z,17.00
2018-08-17T01:21:18.769Z,17.00
2018-08-17T01:23:46.909Z,16.80
2018-08-17T01:26:15.073Z,16.90
2018-08-17T01:28:43.207Z,16.90
2018-08-17T01:31:11.382Z,16.90
2018-08-17T01:36:07.485Z,16.90
2018-08-17T01:38:35.621Z,16.80
2018-08-17T01:41:03.784Z,16.70
2018-08-17T01:43:31.952Z,16.70
2018-08-17T01:46:00.107Z,16.70
2018-08-17T01:48:28.273Z,16.70
2018-08-17T01:50:56.440Z,16.60
2018-08-17T01:53:24.637Z,16.60
2018-08-17T01:55:52.800Z,16.60
2018-08-17T01:58:20.976Z,16.50
2018-08-17T02:00:49.128Z,16.60
2018-08-17T02:03:17.285Z,16.60
2018-08-17T02:05:45.457Z,16.60
2018-08-17T02:10:41.553Z,16.70
2018-08-17T02:13:09.706Z,16.70
2018-08-17T02:18:05.783Z,16.60
2018-08-17T02:20:33.948Z,16.60
2018-08-17T02:23:02.118Z,16.40
2018-08-17T02:27:58.212Z,16.40
2018-08-17T02:30:26.380Z,16.40
2018-08-17T02:32:54.541Z,16.40
2018-08-17T02:35:22.694Z,16.40
2018-08-17T02:37:50.849Z,16.40
2018-08-17T02:40:19.035Z,16.40
2018-08-17T02:42:47.220Z,16.40
2018-08-17T02:45:15.362Z,16.30
2018-08-17T02:47:43.517Z,16.40
2018-08-17T02:50:11.678Z,16.30
2018-08-17T02:52:39.831Z,16.30
2018-08-17T02:55:07.965Z,16.30
2018-08-17T02:57:36.135Z,16.30
2018-08-17T03:00:04.701Z,16.30
2018-08-17T03:02:32.868Z,16.20
2018-08-17T03:07:28.953Z,16.30
2018-08-17T03:09:57.104Z,16.20
2018-08-17T03:12:25.268Z,16.30
2018-08-17T03:17:21.376Z,16.30
2018-08-17T03:19:49.530Z,16.20
2018-08-17T03:22:17.702Z,16.30
2018-08-17T03:24:45.855Z,16.30
2018-08-17T03:27:14.001Z,16.30
2018-08-17T03:29:42.157Z,16.30
2018-08-17T03:32:10.329Z,16.10
2018-08-17T03:34:38.489Z,16.20
2018-08-17T03:37:06.726Z,16.20
2018-08-17T03:39:34.850Z,16.20
2018-08-17T03:42:03.027Z,16.10
2018-08-17T03:44:31.181Z,16.10
2018-08-17T03:46:59.333Z,16.30
2018-08-17T03:49:27.504Z,16.20
2018-08-17T03:51:55.638Z,16.20
2018-08-17T03:54:23.793Z,16.00
2018-08-17T03:56:51.958Z,16.00
2018-08-17T03:59:20.113Z,16.00
2018-08-17T04:01:48.269Z,16.10
2018-08-17T04:04:16.430Z,16.10
2018-08-17T04:09:12.517Z,16.00
2018-08-17T04:11:40.694Z,16.10
2018-08-17T04:14:09.306Z,16.50
2018-08-17T04:16:37.457Z,16.50
2018-08-17T04:19:05.625Z,16.20
2018-08-17T04:21:33.772Z,16.20
2018-08-17T04:24:01.938Z,16.20
2018-08-17T04:26:30.099Z,16.20
2018-08-17T04:28:58.286Z,16.20
2018-08-17T04:31:26.453Z,16.60
2018-08-17T04:33:54.813Z,16.30
2018-08-17T04:43:46.818Z,16.40
2018-08-17T04:48:42.892Z,16.40
2018-08-17T04:51:11.066Z,16.40
2018-08-17T04:53:39.225Z,16.40
2018-08-17T04:56:07.400Z,16.50
2018-08-17T04:58:35.574Z,16.50
2018-08-17T05:01:03.762Z,16.60
2018-08-17T05:03:32.094Z,16.70
2018-08-17T05:06:00.246Z,16.70
2018-08-17T05:08:28.395Z,16.80
2018-08-17T05:10:56.595Z,16.80
2018-08-17T05:13:24.813Z,16.90
2018-08-17T05:15:52.991Z,17.00
2018-08-17T05:18:21.184Z,17.00
2018-08-17T05:20:49.365Z,17.00
2018-08-17T05:23:17.617Z,17.00
2018-08-17T05:25:46.124Z,17.10
2018-08-17T05:30:42.310Z,17.30
2018-08-17T05:33:10.455Z,17.40
2018-08-17T05:35:38.602Z,17.50
2018-08-17T05:40:34.727Z,17.90
2018-08-17T05:43:02.885Z,18.00
2018-08-17T05:45:31.046Z,18.10
2018-08-17T05:52:55.397Z,20.50
2018-08-17T05:55:23.552Z,21.40
2018-08-17T05:57:51.693Z,22.00
2018-08-17T06:00:19.869Z,22.00
2018-08-17T06:02:48.057Z,22.60
2018-08-17T06:05:16.206Z,21.80
2018-08-17T06:07:44.357Z,22.20
2018-08-17T06:10:12.544Z,23.50
2018-08-17T06:12:40.704Z,24.20
2018-08-17T06:15:09.026Z,24.80
2018-08-17T06:17:37.225Z,24.90
2018-08-17T06:20:05.918Z,25.10
2018-08-17T06:25:02.761Z,25.60
2018-08-17T06:27:30.938Z,25.50
2018-08-17T06:32:27.085Z,24.10
2018-08-17T06:34:55.254Z,22.40
2018-08-17T06:37:23.498Z,22.40
2018-08-17T06:44:47.474Z,21.70
2018-08-17T06:49:43.573Z,21.60
2018-08-17T06:52:11.735Z,21.70
2018-08-17T06:54:39.890Z,21.60
2018-08-17T06:59:35.962Z,22.60
2018-08-17T07:04:32.081Z,24.50
2018-08-17T07:07:00.239Z,24.00
2018-08-17T07:09:28.448Z,24.00
2018-08-17T07:11:56.554Z,24.00
2018-08-17T07:14:24.705Z,23.80
2018-08-17T07:16:52.903Z,23.80
2018-08-17T07:19:21.051Z,24.30
2018-08-17T07:21:49.275Z,25.30
2018-08-17T07:24:17.475Z,26.20
2018-08-17T07:26:45.650Z,26.90
2018-08-17T07:29:13.801Z,27.00
2018-08-17T07:31:41.945Z,27.00
2018-08-17T07:34:10.108Z,26.20
2018-08-17T07:36:38.274Z,26.00
2018-08-17T07:39:07.206Z,26.00
2018-08-17T07:41:35.535Z,26.60
2018-08-17T07:44:03.818Z,26.90
2018-08-17T07:46:31.970Z,26.40
2018-08-17T07:49:00.126Z,26.60
2018-08-17T07:51:28.275Z,26.70
2018-08-17T07:53:56.425Z,27.10
2018-08-17T07:56:24.602Z,26.70
2018-08-17T07:58:52.821Z,26.80
2018-08-17T08:01:20.918Z,27.70
2018-08-17T08:03:49.093Z,27.20
2018-08-17T08:06:17.250Z,27.80
2018-08-17T08:08:45.430Z,28.20
2018-08-17T08:11:13.660Z,28.30
2018-08-17T08:13:41.853Z,28.90
2018-08-17T08:16:09.926Z,28.30
2018-08-17T08:18:38.114Z,28.00
2018-08-17T08:21:06.286Z,27.80
2018-08-17T08:23:34.458Z,28.10
2018-08-17T08:26:02.710Z,27.70
2018-08-17T08:28:30.822Z,27.70
2018-08-17T08:30:58.985Z,28.00
2018-08-17T08:33:27.169Z,28.80
2018-08-17T08:35:55.345Z,29.20
2018-08-17T08:38:23.532Z,29.50
2018-08-17T08:40:51.717Z,28.70
2018-08-17T08:43:19.877Z,29.80
2018-08-17T08:45:48.029Z,30.00
2018-08-17T08:48:16.202Z,30.30
2018-08-17T08:50:44.365Z,30.50
2018-08-17T08:53:12.521Z,30.60
2018-08-17T08:55:40.693Z,30.50
2018-08-17T08:58:08.868Z,31.50
2018-08-17T09:00:37.054Z,31.60
2018-08-17T09:03:05.740Z,32.40
2018-08-17T09:05:33.933Z,32.70
2018-08-17T09:08:02.130Z,33.40
2018-08-17T09:10:30.268Z,33.30
2018-08-17T09:12:58.440Z,32.90
2018-08-17T09:15:26.626Z,32.90
2018-08-17T09:17:54.798Z,33.40
2018-08-17T09:20:22.991Z,33.60
2018-08-17T09:22:51.120Z,33.70
2018-08-17T09:25:19.278Z,33.60
2018-08-17T09:27:47.436Z,34.70
2018-08-17T09:30:15.811Z,34.70
2018-08-17T09:32:43.924Z,34.80
2018-08-17T09:35:13.160Z,34.60
2018-08-17T09:37:41.429Z,34.40
2018-08-17T09:40:10.457Z,34.90
2018-08-17T09:42:38.614Z,34.30
2018-08-17T09:45:08.572Z,34.30
2018-08-17T09:47:36.744Z,34.50
2018-08-17T09:50:06.689Z,34.50
2018-08-17T09:52:34.856Z,33.20
2018-08-17T09:55:04.914Z,34.10
2018-08-17T09:57:33.071Z,34.10
2018-08-17T10:00:01.274Z,34.90
2018-08-17T10:02:34.858Z,34.80
2018-08-17T10:05:39.368Z,35.70
2018-08-17T10:08:13.117Z,35.80
2018-08-17T10:10:41.343Z,35.30
2018-08-17T10:15:38.538Z,36.10
2018-08-17T10:18:06.865Z,35.10
2018-08-17T10:20:35.585Z,35.50
2018-08-17T10:23:11.044Z,35.50
2018-08-17T10:25:39.782Z,35.50
2018-08-17T10:28:08.106Z,34.70
2018-08-17T10:30:36.365Z,34.50
2018-08-17T10:33:04.713Z,34.60
2018-08-17T10:35:33.825Z,34.70
2018-08-17T10:38:03.229Z,35.50
2018-08-17T10:40:31.474Z,35.40
2018-08-17T10:43:00.805Z,35.60
2018-08-17T10:45:29.138Z,35.00
2018-08-17T10:47:57.749Z,35.20
2018-08-17T10:50:28.076Z,35.60
2018-08-17T10:52:57.477Z,35.50
2018-08-17T10:55:40.844Z,35.60
2018-08-17T10:58:10.521Z,35.20
2018-08-17T11:00:38.695Z,36.10
2018-08-17T11:03:06.893Z,35.30
2018-08-17T11:08:02.980Z,35.80
2018-08-17T11:10:31.138Z,36.90
2018-08-17T11:12:59.279Z,35.90
2018-08-17T11:15:27.442Z,35.60
2018-08-17T11:17:55.597Z,35.60
2018-08-17T11:20:23.774Z,35.60
2018-08-17T11:22:51.937Z,35.60
2018-08-17T11:25:20.112Z,36.00
2018-08-17T11:32:44.221Z,35.70
2018-08-17T11:35:12.367Z,35.80
2018-08-17T11:37:40.529Z,35.70
2018-08-17T11:40:09.595Z,35.70
2018-08-17T11:42:47.976Z,35.20
2018-08-17T11:45:19.001Z,35.10
2018-08-17T11:47:47.709Z,35.10
2018-08-17T11:50:17.531Z,35.50
2018-08-17T11:52:50.721Z,35.40
2018-08-17T11:55:19.294Z,34.70
2018-08-17T11:57:47.550Z,34.60
2018-08-17T12:00:15.753Z,34.70
2018-08-17T12:02:44.329Z,33.30
2018-08-17T12:05:12.545Z,33.20
2018-08-17T12:07:41.389Z,32.00
2018-08-17T12:12:38.668Z,31.80
2018-08-17T12:15:08.442Z,31.90
2018-08-17T12:22:32.925Z,31.40
2018-08-17T12:25:01.645Z,31.50
2018-08-17T12:27:29.797Z,31.60
2018-08-17T12:29:57.965Z,31.60
2018-08-17T12:34:54.181Z,32.30
2018-08-17T12:37:22.373Z,32.50
2018-08-17T12:39:50.687Z,32.50
2018-08-17T12:42:18.904Z,33.10
2018-08-17T12:44:47.097Z,32.90
2018-08-17T12:47:15.241Z,33.40
2018-08-17T12:52:11.382Z,34.30
2018-08-17T12:54:39.522Z,34.30
2018-08-17T12:57:07.670Z,33.60
2018-08-17T12:59:36.205Z,33.10
2018-08-17T13:02:04.653Z,32.60
2018-08-17T13:04:32.897Z,32.50
2018-08-17T13:07:01.029Z,32.40
2018-08-17T13:09:29.276Z,31.90
2018-08-17T13:11:58.693Z,32.10
2018-08-17T13:14:27.000Z,32.00
2018-08-17T13:16:56.385Z,31.70
2018-08-17T13:19:24.545Z,31.80
2018-08-17T13:21:52.693Z,31.40
2018-08-17T13:24:20.845Z,31.20
2018-08-17T13:26:48.998Z,31.40
2018-08-17T13:31:45.093Z,31.60
2018-08-17T13:34:13.257Z,31.40
2018-08-17T13:36:41.391Z,31.50
2018-08-17T13:39:10.459Z,31.60
2018-08-17T13:41:38.640Z,31.70
2018-08-17T13:46:36.203Z,31.90
2018-08-17T13:49:04.874Z,31.80
2018-08-17T13:51:32.952Z,32.20
2018-08-17T13:54:01.110Z,32.00
2018-08-17T13:56:29.266Z,32.80
2018-08-17T13:58:57.430Z,32.80
2018-08-17T14:01:25.560Z,32.70
2018-08-17T14:03:53.711Z,32.20
2018-08-17T14:06:21.873Z,32.30
2018-08-17T14:08:50.047Z,32.30
2018-08-17T14:13:46.162Z,32.10
2018-08-17T14:16:14.305Z,32.10
2018-08-17T14:18:42.461Z,31.70
2018-08-17T14:21:10.593Z,32.40
2018-08-17T14:23:38.791Z,32.20
2018-08-17T14:26:06.957Z,32.70
2018-08-17T14:31:03.010Z,32.90
2018-08-17T14:38:33.621Z,31.50
2018-08-17T14:41:02.643Z,31.60
2018-08-17T14:43:31.053Z,31.20
2018-08-17T14:48:27.606Z,31.80
2018-08-17T14:50:55.997Z,31.80
2018-08-17T14:53:24.469Z,31.60
2018-08-17T14:58:20.971Z,31.40
2018-08-17T15:00:49.142Z,31.40
2018-08-17T15:03:17.329Z,31.40
2018-08-17T15:05:45.477Z,31.10
2018-08-17T15:13:09.563Z,30.80
2018-08-17T15:15:37.657Z,30.80
2018-08-17T15:23:01.726Z,30.90
2018-08-17T15:25:29.888Z,30.80
2018-08-17T15:27:58.110Z,30.90
2018-08-17T15:30:26.325Z,30.40
2018-08-17T15:32:54.470Z,29.90
2018-08-17T15:35:22.719Z,29.20
2018-08-17T15:37:50.915Z,29.10
2018-08-17T15:40:19.074Z,28.90
2018-08-17T15:42:47.213Z,29.10
2018-08-17T15:45:22.782Z,29.20
2018-08-17T15:52:48.202Z,29.00
2018-08-17T15:55:16.356Z,28.90
2018-08-17T15:57:47.543Z,28.90
2018-08-17T16:00:17.830Z,28.90
2018-08-17T16:02:46.009Z,29.20
2018-08-17T16:05:14.222Z,28.90
2018-08-17T16:07:42.457Z,29.10
2018-08-17T16:20:05.137Z,29.30
2018-08-17T16:22:33.313Z,29.10
2018-08-17T16:25:01.488Z,29.10
2018-08-17T16:27:29.670Z,29.10
2018-08-17T16:29:57.829Z,28.70
2018-08-17T16:32:26.018Z,28.70
2018-08-17T16:37:22.120Z,28.50
2018-08-17T16:39:53.597Z,28.50
2018-08-17T16:42:28.260Z,28.40
2018-08-17T16:47:24.448Z,28.30
2018-08-17T16:49:52.621Z,28.10
2018-08-17T16:52:20.785Z,28.10
2018-08-17T16:54:48.945Z,28.20
2018-08-17T16:57:17.098Z,28.20
2018-08-17T16:59:45.243Z,28.20
2018-08-17T17:02:13.417Z,28.10
2018-08-17T17:04:42.723Z,28.00
2018-08-17T17:07:10.858Z,27.80
2018-08-17T17:09:39.139Z,27.70
2018-08-17T17:14:38.799Z,27.50
2018-08-17T17:17:06.985Z,27.40
2018-08-17T17:19:35.130Z,27.30
2018-08-17T17:22:03.290Z,27.30
2018-08-17T17:24:31.453Z,27.20
2018-08-17T17:26:59.629Z,27.20
2018-08-17T17:29:31.924Z,27.10
2018-08-17T17:34:28.178Z,26.90
2018-08-17T17:36:56.489Z,26.90
2018-08-17T17:39:25.023Z,26.70
2018-08-17T17:46:49.101Z,26.50
2018-08-17T17:49:17.254Z,26.50
2018-08-17T17:54:22.692Z,26.40
2018-08-17T17:57:08.128Z,26.30
2018-08-17T17:59:48.047Z,26.20
2018-08-17T18:02:16.320Z,26.20
2018-08-17T18:04:44.487Z,26.10
2018-08-17T18:07:12.614Z,26.00
2018-08-17T18:09:40.773Z,26.00
2018-08-17T18:12:08.954Z,25.80
2018-08-17T18:14:37.102Z,25.70
2018-08-17T18:17:05.257Z,25.60
2018-08-17T18:19:33.429Z,25.60
2018-08-17T18:22:01.984Z,25.60
2018-08-17T18:24:30.145Z,25.50
2018-08-17T18:26:58.310Z,25.60
2018-08-17T18:29:26.460Z,25.60
2018-08-17T18:31:54.636Z,25.60
2018-08-17T18:34:22.794Z,25.60
2018-08-17T18:36:50.970Z,25.40
2018-08-17T18:39:19.962Z,25.40
2018-08-17T18:41:48.118Z,25.40
2018-08-17T18:44:16.286Z,25.30
2018-08-17T18:46:44.520Z,25.10
2018-08-17T18:49:12.580Z,25.00
2018-08-17T18:51:40.739Z,25.00
2018-08-17T18:54:08.900Z,24.90
2018-08-17T18:56:37.049Z,24.80
2018-08-17T19:01:33.110Z,24.60
2018-08-17T19:04:01.270Z,24.60
2018-08-17T19:06:29.416Z,24.60
2018-08-17T19:08:57.585Z,24.60
2018-08-17T19:11:25.729Z,24.80
2018-08-17T19:13:53.889Z,24.90
2018-08-17T19:16:22.049Z,24.90
2018-08-17T19:18:50.213Z,25.00
2018-08-17T19:21:18.389Z,25.00
2018-08-17T19:23:46.542Z,25.00
2018-08-17T19:26:14.709Z,24.90
2018-08-17T19:28:43.834Z,24.90
2018-08-17T19:31:12.044Z,24.90
2018-08-17T19:33:40.202Z,24.80
2018-08-17T19:36:08.386Z,24.80
2018-08-17T19:38:38.102Z,24.70
2018-08-17T19:41:06.387Z,24.70
2018-08-17T19:46:02.698Z,24.60
2018-08-17T19:48:30.770Z,24.50
2018-08-17T19:50:58.983Z,24.50
2018-08-17T19:53:27.151Z,24.40
2018-08-17T19:55:55.304Z,24.40
2018-08-17T19:58:23.569Z,24.30
2018-08-17T20:00:51.652Z,24.30
2018-08-17T20:05:47.740Z,24.30
2018-08-17T20:10:43.816Z,24.10
2018-08-17T20:13:11.988Z,24.10
2018-08-17T20:15:40.149Z,24.00
2018-08-17T20:18:08.324Z,24.00
2018-08-17T20:20:36.476Z,23.90
2018-08-17T20:25:32.577Z,23.80
2018-08-17T20:28:00.735Z,23.80
2018-08-17T20:30:28.897Z,23.70
2018-08-17T20:32:57.057Z,23.70
2018-08-17T20:35:25.229Z,23.70
2018-08-17T20:37:54.145Z,23.70
2018-08-17T20:42:50.430Z,23.60
2018-08-17T20:45:18.926Z,23.50
2018-08-17T20:47:47.076Z,23.50
2018-08-17T20:50:16.878Z,23.50
2018-08-17T20:52:51.402Z,23.50
2018-08-17T21:00:17.186Z,23.30
2018-08-17T21:02:45.477Z,23.20
2018-08-17T21:05:14.088Z,23.20
2018-08-17T21:10:11.395Z,23.00
2018-08-17T21:12:39.549Z,23.00
2018-08-17T21:15:07.685Z,22.90
2018-08-17T21:17:35.850Z,23.00
2018-08-17T21:20:04.442Z,22.90
2018-08-17T21:22:32.625Z,23.00
2018-08-17T21:25:00.766Z,23.00
2018-08-17T21:27:28.972Z,22.90
2018-08-17T21:29:57.130Z,22.90
2018-08-17T21:32:25.300Z,22.80
2018-08-17T21:34:58.061Z,22.40
2018-08-17T21:37:26.863Z,22.30
2018-08-17T21:39:55.022Z,22.00
2018-08-17T21:44:51.193Z,21.80
2018-08-17T21:47:19.368Z,21.50
2018-08-17T21:49:47.561Z,21.40
2018-08-17T21:52:21.205Z,21.50
2018-08-17T21:54:49.362Z,21.40
2018-08-17T21:59:51.469Z,21.10
2018-08-17T22:02:20.540Z,20.80
2018-08-17T22:04:48.632Z,20.80
2018-08-17T22:09:50.626Z,20.10
2018-08-17T22:12:25.238Z,19.70
2018-08-17T22:14:53.353Z,19.80
2018-08-17T22:17:33.956Z,19.80
2018-08-17T22:20:02.603Z,19.80
2018-08-17T22:22:40.830Z,19.30
2018-08-17T22:27:40.562Z,19.80
2018-08-17T22:30:16.237Z,19.70
2018-08-17T22:32:44.389Z,19.70
2018-08-17T22:35:12.788Z,19.80
2018-08-17T22:37:40.879Z,19.80
2018-08-17T22:40:09.129Z,19.80
2018-08-17T22:42:37.319Z,19.60
2018-08-17T22:45:05.655Z,19.70
2018-08-17T22:47:33.859Z,19.50
2018-08-17T22:50:02.029Z,19.30
2018-08-17T22:52:32.477Z,19.50
2018-08-17T22:55:01.722Z,19.50
2018-08-17T22:57:30.609Z,19.50
2018-08-17T23:00:13.226Z,19.40
2018-08-17T23:02:42.526Z,19.20
2018-08-17T23:05:11.970Z,19.20
2018-08-17T23:07:40.136Z,18.80
2018-08-17T23:10:13.639Z,19.10
2018-08-17T23:12:41.984Z,19.10
2018-08-17T23:15:11.084Z,19.20
2018-08-17T23:17:39.579Z,19.00
2018-08-17T23:20:08.159Z,19.00
2018-08-17T23:22:53.169Z,19.20
2018-08-17T23:25:21.366Z,19.20
2018-08-17T23:27:50.166Z,19.00
2018-08-17T23:30:18.362Z,19.00
2018-08-17T23:32:46.824Z,19.00
2018-08-17T23:35:14.985Z,19.00
2018-08-17T23:37:43.142Z,18.90
2018-08-17T23:40:11.380Z,18.80
2018-08-17T23:42:39.582Z,19.00
2018-08-17T23:45:09.373Z,19.00
2018-08-17T23:47:37.509Z,18.90
2018-08-17T23:50:06.572Z,19.00
2018-08-17T23:52:34.693Z,19.00
2018-08-17T23:55:02.878Z,18.90
2018-08-17T23:57:31.016Z,18.70
